Lincoln Park, Michigan
Current Conditions -  °F | °C
As of 9:53 PM on Friday 19 Dec 2014 (Local Time) from KDTW Reporting Station
Broken Clouds Broken Clouds  
Wind Chill: -5°   Ceiling: 22000
Heat Index: -5°   Visibility: 10mi
Dew Point: -7°   Wind: 3mph
Humidity: 85%   Direction: 10°N
Pressure: 30.29"   Gusts: NA
Location:  42.25°N, 83.18°W
Report Text: KDTW 200253Z 01003KT 10SM SCT025 BKN220 M05/M07 A3029 RMK AO2 SLP266 T10501072 58012 $
Loading
Personal Weather Stations






























Interactive Weather Map New forecast layout! Learn more

10-Day Weather Forecast

Advertisements
Track Severe Weather on mobile